sensor_id;sensor_type;location;lat;lon;timestamp;temperature;humidity
16907;DHT22;8570;52.380;4.654;2023-09-19T00:04:47;16.10;99.90
16907;DHT22;8570;52.380;4.654;2023-09-19T00:09:50;16.10;99.90
16907;DHT22;8570;52.380;4.654;2023-09-19T00:14:53;16.10;99.90
16907;DHT22;8570;52.380;4.654;2023-09-19T00:19:57;16.10;99.90
16907;DHT22;8570;52.380;4.654;2023-09-19T00:24:59;16.10;99.90
16907;DHT22;8570;52.380;4.654;2023-09-19T00:30:03;16.10;99.90
16907;DHT22;8570;52.380;4.654;2023-09-19T00:35:06;16.10;99.90
16907;DHT22;8570;52.380;4.654;2023-09-19T00:40:10;16.10;99.90
16907;DHT22;8570;52.380;4.654;2023-09-19T00:45:15;16.10;99.90
16907;DHT22;8570;52.380;4.654;2023-09-19T00:50:19;16.10;99.90
16907;DHT22;8570;52.380;4.654;2023-09-19T00:55:24;16.10;99.90
16907;DHT22;8570;52.380;4.654;2023-09-19T01:00:28;16.10;99.90
16907;DHT22;8570;52.380;4.654;2023-09-19T01:05:31;16.20;99.90
16907;DHT22;8570;52.380;4.654;2023-09-19T01:10:33;16.20;99.90
16907;DHT22;8570;52.380;4.654;2023-09-19T01:15:44;16.20;99.90
16907;DHT22;8570;52.380;4.654;2023-09-19T01:20:59;16.20;99.90
16907;DHT22;8570;52.380;4.654;2023-09-19T01:26:15;16.20;99.90
16907;DHT22;8570;52.380;4.654;2023-09-19T01:31:22;16.20;99.90
16907;DHT22;8570;52.380;4.654;2023-09-19T01:36:30;16.20;99.90
16907;DHT22;8570;52.380;4.654;2023-09-19T01:41:51;16.20;99.90
16907;DHT22;8570;52.380;4.654;2023-09-19T01:46:59;16.30;99.90
16907;DHT22;8570;52.380;4.654;2023-09-19T01:52:10;16.30;99.90
16907;DHT22;8570;52.380;4.654;2023-09-19T01:57:17;16.30;99.90
16907;DHT22;8570;52.380;4.654;2023-09-19T02:02:24;16.30;99.90
16907;DHT22;8570;52.380;4.654;2023-09-19T02:07:26;16.30;99.90
16907;DHT22;8570;52.380;4.654;2023-09-19T02:12:29;16.30;99.90
16907;DHT22;8570;52.380;4.654;2023-09-19T02:17:34;16.40;99.90
16907;DHT22;8570;52.380;4.654;2023-09-19T02:22:36;16.40;99.90
16907;DHT22;8570;52.380;4.654;2023-09-19T02:27:39;16.30;99.90
16907;DHT22;8570;52.380;4.654;2023-09-19T02:32:42;16.30;99.90
16907;DHT22;8570;52.380;4.654;2023-09-19T02:37:45;16.30;99.90
16907;DHT22;8570;52.380;4.654;2023-09-19T02:42:48;16.30;99.90
16907;DHT22;8570;52.380;4.654;2023-09-19T02:47:52;16.30;99.90
16907;DHT22;8570;52.380;4.654;2023-09-19T02:52:54;16.30;99.90
16907;DHT22;8570;52.380;4.654;2023-09-19T02:57:56;16.30;99.90
16907;DHT22;8570;52.380;4.654;2023-09-19T03:02:59;16.30;99.90
16907;DHT22;8570;52.380;4.654;2023-09-19T03:08:01;16.30;99.90
16907;DHT22;8570;52.380;4.654;2023-09-19T03:13:03;16.30;99.90
16907;DHT22;8570;52.380;4.654;2023-09-19T03:18:07;16.20;99.90
16907;DHT22;8570;52.380;4.654;2023-09-19T03:23:09;16.20;99.90
16907;DHT22;8570;52.380;4.654;2023-09-19T03:28:13;16.10;99.90
16907;DHT22;8570;52.380;4.654;2023-09-19T03:33:17;16.00;99.90
16907;DHT22;8570;52.380;4.654;2023-09-19T03:38:20;16.00;99.90
16907;DHT22;8570;52.380;4.654;2023-09-19T03:43:23;15.90;99.90
16907;DHT22;8570;52.380;4.654;2023-09-19T03:48:26;15.90;99.90
16907;DHT22;8570;52.380;4.654;2023-09-19T03:53:28;16.00;99.90
16907;DHT22;8570;52.380;4.654;2023-09-19T03:58:30;15.90;99.90
16907;DHT22;8570;52.380;4.654;2023-09-19T04:03:34;16.00;99.90
16907;DHT22;8570;52.380;4.654;2023-09-19T04:08:46;16.00;99.90
16907;DHT22;8570;52.380;4.654;2023-09-19T04:13:48;16.00;99.90
16907;DHT22;8570;52.380;4.654;2023-09-19T04:18:52;16.00;99.90
16907;DHT22;8570;52.380;4.654;2023-09-19T04:23:54;15.90;99.90
16907;DHT22;8570;52.380;4.654;2023-09-19T04:28:55;16.00;99.90
16907;DHT22;8570;52.380;4.654;2023-09-19T04:33:59;15.90;99.90
16907;DHT22;8570;52.380;4.654;2023-09-19T04:39:04;15.90;99.90
16907;DHT22;8570;52.380;4.654;2023-09-19T04:44:07;15.90;99.90
16907;DHT22;8570;52.380;4.654;2023-09-19T04:49:11;16.10;99.90
16907;DHT22;8570;52.380;4.654;2023-09-19T04:54:13;16.10;99.90
16907;DHT22;8570;52.380;4.654;2023-09-19T04:59:16;16.10;99.90
16907;DHT22;8570;52.380;4.654;2023-09-19T05:04:19;16.10;99.90
16907;DHT22;8570;52.380;4.654;2023-09-19T05:09:21;16.20;99.90
16907;DHT22;8570;52.380;4.654;2023-09-19T05:14:24;16.20;99.90
16907;DHT22;8570;52.380;4.654;2023-09-19T05:19:27;16.20;99.90
16907;DHT22;8570;52.380;4.654;2023-09-19T05:24:29;16.20;99.90
16907;DHT22;8570;52.380;4.654;2023-09-19T05:29:31;16.20;99.90
16907;DHT22;8570;52.380;4.654;2023-09-19T05:34:35;16.10;99.90
16907;DHT22;8570;52.380;4.654;2023-09-19T05:39:37;16.10;99.90
16907;DHT22;8570;52.380;4.654;2023-09-19T05:44:39;16.10;99.90
16907;DHT22;8570;52.380;4.654;2023-09-19T05:49:42;16.10;99.90
16907;DHT22;8570;52.380;4.654;2023-09-19T05:54:44;16.00;99.90
16907;DHT22;8570;52.380;4.654;2023-09-19T05:59:46;15.90;99.90
16907;DHT22;8570;52.380;4.654;2023-09-19T06:04:51;15.90;99.90
16907;DHT22;8570;52.380;4.654;2023-09-19T06:09:53;16.00;99.90
16907;DHT22;8570;52.380;4.654;2023-09-19T06:14:56;16.00;99.90
16907;DHT22;8570;52.380;4.654;2023-09-19T06:19:59;16.10;99.90
16907;DHT22;8570;52.380;4.654;2023-09-19T06:25:01;16.10;99.90
16907;DHT22;8570;52.380;4.654;2023-09-19T06:30:03;16.10;99.90
16907;DHT22;8570;52.380;4.654;2023-09-19T06:35:10;16.00;99.90
16907;DHT22;8570;52.380;4.654;2023-09-19T06:40:13;15.90;99.90
16907;DHT22;8570;52.380;4.654;2023-09-19T06:45:16;15.90;99.90
16907;DHT22;8570;52.380;4.654;2023-09-19T06:50:21;15.90;99.90
16907;DHT22;8570;52.380;4.654;2023-09-19T06:55:23;15.90;99.90
16907;DHT22;8570;52.380;4.654;2023-09-19T07:00:28;15.90;99.90
16907;DHT22;8570;52.380;4.654;2023-09-19T07:05:35;16.00;99.90
16907;DHT22;8570;52.380;4.654;2023-09-19T07:10:38;16.10;99.90
16907;DHT22;8570;52.380;4.654;2023-09-19T07:15:41;16.10;99.90
16907;DHT22;8570;52.380;4.654;2023-09-19T07:20:48;16.20;99.90
16907;DHT22;8570;52.380;4.654;2023-09-19T07:25:50;16.30;99.90
16907;DHT22;8570;52.380;4.654;2023-09-19T07:30:52;16.30;99.90
16907;DHT22;8570;52.380;4.654;2023-09-19T07:35:55;16.40;99.90
16907;DHT22;8570;52.380;4.654;2023-09-19T07:41:00;16.50;99.90
16907;DHT22;8570;52.380;4.654;2023-09-19T07:46:04;16.50;99.90
16907;DHT22;8570;52.380;4.654;2023-09-19T07:51:08;16.60;99.90
16907;DHT22;8570;52.380;4.654;2023-09-19T07:56:11;16.70;99.90
16907;DHT22;8570;52.380;4.654;2023-09-19T08:01:13;16.80;99.90
16907;DHT22;8570;52.380;4.654;2023-09-19T08:06:18;16.90;99.90
16907;DHT22;8570;52.380;4.654;2023-09-19T08:11:20;17.00;99.90
16907;DHT22;8570;52.380;4.654;2023-09-19T08:16:25;17.10;99.90
16907;DHT22;8570;52.380;4.654;2023-09-19T08:21:28;17.20;99.90
16907;DHT22;8570;52.380;4.654;2023-09-19T08:26:30;17.30;99.90
16907;DHT22;8570;52.380;4.654;2023-09-19T08:31:32;17.30;99.90
16907;DHT22;8570;52.380;4.654;2023-09-19T08:36:36;17.40;99.90
16907;DHT22;8570;52.380;4.654;2023-09-19T08:41:39;17.40;99.90
16907;DHT22;8570;52.380;4.654;2023-09-19T08:46:41;17.50;99.90
16907;DHT22;8570;52.380;4.654;2023-09-19T08:51:47;17.50;99.90
16907;DHT22;8570;52.380;4.654;2023-09-19T08:56:54;17.50;99.90
16907;DHT22;8570;52.380;4.654;2023-09-19T09:01:56;17.50;99.90
16907;DHT22;8570;52.380;4.654;2023-09-19T09:07:00;17.50;99.90
16907;DHT22;8570;52.380;4.654;2023-09-19T09:12:05;17.50;99.90
16907;DHT22;8570;52.380;4.654;2023-09-19T09:17:07;17.60;99.90
16907;DHT22;8570;52.380;4.654;2023-09-19T09:22:11;17.60;99.90
16907;DHT22;8570;52.380;4.654;2023-09-19T09:27:13;17.60;99.90
16907;DHT22;8570;52.380;4.654;2023-09-19T09:32:23;17.60;99.90
16907;DHT22;8570;52.380;4.654;2023-09-19T09:37:28;17.70;99.90
16907;DHT22;8570;52.380;4.654;2023-09-19T09:42:32;17.70;99.90
16907;DHT22;8570;52.380;4.654;2023-09-19T09:47:41;17.60;99.90
16907;DHT22;8570;52.380;4.654;2023-09-19T09:52:52;17.60;99.90
16907;DHT22;8570;52.380;4.654;2023-09-19T09:58:16;17.60;99.90
16907;DHT22;8570;52.380;4.654;2023-09-19T10:03:20;17.60;99.90
16907;DHT22;8570;52.380;4.654;2023-09-19T10:08:24;17.60;99.90
16907;DHT22;8570;52.380;4.654;2023-09-19T10:13:33;17.70;99.90
16907;DHT22;8570;52.380;4.654;2023-09-19T10:18:38;17.70;99.90
16907;DHT22;8570;52.380;4.654;2023-09-19T10:23:44;17.70;99.90
16907;DHT22;8570;52.380;4.654;2023-09-19T10:28:48;17.80;99.90
16907;DHT22;8570;52.380;4.654;2023-09-19T10:33:52;17.80;99.90
16907;DHT22;8570;52.380;4.654;2023-09-19T10:38:58;17.80;99.90
16907;DHT22;8570;52.380;4.654;2023-09-19T10:44:03;17.80;99.90
16907;DHT22;8570;52.380;4.654;2023-09-19T10:49:10;17.70;99.90
16907;DHT22;8570;52.380;4.654;2023-09-19T10:54:17;17.60;99.90
16907;DHT22;8570;52.380;4.654;2023-09-19T10:59:21;17.60;99.90
16907;DHT22;8570;52.380;4.654;2023-09-19T11:04:26;17.60;99.90
16907;DHT22;8570;52.380;4.654;2023-09-19T11:09:45;17.60;99.90
16907;DHT22;8570;52.380;4.654;2023-09-19T11:14:47;17.60;99.90
16907;DHT22;8570;52.380;4.654;2023-09-19T11:20:23;17.70;99.90
16907;DHT22;8570;52.380;4.654;2023-09-19T11:25:43;17.80;99.90
16907;DHT22;8570;52.380;4.654;2023-09-19T11:30:49;17.90;99.90
16907;DHT22;8570;52.380;4.654;2023-09-19T11:36:04;18.00;99.90
16907;DHT22;8570;52.380;4.654;2023-09-19T11:41:39;18.00;99.90
16907;DHT22;8570;52.380;4.654;2023-09-19T11:46:52;18.00;99.90
16907;DHT22;8570;52.380;4.654;2023-09-19T11:51:55;18.00;99.90
16907;DHT22;8570;52.380;4.654;2023-09-19T11:57:00;18.00;99.90
16907;DHT22;8570;52.380;4.654;2023-09-19T12:02:05;17.90;99.90
16907;DHT22;8570;52.380;4.654;2023-09-19T12:07:10;17.90;99.90
16907;DHT22;8570;52.380;4.654;2023-09-19T12:12:21;17.80;99.90
16907;DHT22;8570;52.380;4.654;2023-09-19T12:17:23;17.60;99.90
16907;DHT22;8570;52.380;4.654;2023-09-19T12:22:28;17.60;99.90
16907;DHT22;8570;52.380;4.654;2023-09-19T12:27:45;17.70;99.90
16907;DHT22;8570;52.380;4.654;2023-09-19T12:32:48;17.90;99.90
16907;DHT22;8570;52.380;4.654;2023-09-19T12:37:52;18.00;99.90
16907;DHT22;8570;52.380;4.654;2023-09-19T12:42:57;18.20;99.90
16907;DHT22;8570;52.380;4.654;2023-09-19T12:48:19;18.10;99.90
16907;DHT22;8570;52.380;4.654;2023-09-19T12:53:25;18.20;99.90
16907;DHT22;8570;52.380;4.654;2023-09-19T12:58:31;18.20;99.90
16907;DHT22;8570;52.380;4.654;2023-09-19T13:03:34;18.20;99.90
16907;DHT22;8570;52.380;4.654;2023-09-19T13:08:37;18.30;99.90
16907;DHT22;8570;52.380;4.654;2023-09-19T13:13:42;18.30;99.90
16907;DHT22;8570;52.380;4.654;2023-09-19T13:18:51;18.30;99.90
16907;DHT22;8570;52.380;4.654;2023-09-19T13:23:55;18.30;99.90
16907;DHT22;8570;52.380;4.654;2023-09-19T13:29:01;18.40;99.90
16907;DHT22;8570;52.380;4.654;2023-09-19T13:34:03;18.40;99.90
16907;DHT22;8570;52.380;4.654;2023-09-19T13:39:05;18.30;99.90
16907;DHT22;8570;52.380;4.654;2023-09-19T13:44:10;18.20;99.90
16907;DHT22;8570;52.380;4.654;2023-09-19T13:49:13;18.30;99.90
16907;DHT22;8570;52.380;4.654;2023-09-19T13:54:15;18.20;99.90
16907;DHT22;8570;52.380;4.654;2023-09-19T13:59:18;18.20;99.90
16907;DHT22;8570;52.380;4.654;2023-09-19T14:04:21;18.20;99.90
16907;DHT22;8570;52.380;4.654;2023-09-19T14:09:23;18.20;99.90
16907;DHT22;8570;52.380;4.654;2023-09-19T14:14:27;18.30;99.90
16907;DHT22;8570;52.380;4.654;2023-09-19T14:19:29;18.40;99.90
16907;DHT22;8570;52.380;4.654;2023-09-19T14:24:31;18.40;99.90
16907;DHT22;8570;52.380;4.654;2023-09-19T14:29:34;18.40;99.90
16907;DHT22;8570;52.380;4.654;2023-09-19T14:34:36;18.40;99.90
16907;DHT22;8570;52.380;4.654;2023-09-19T14:39:42;18.40;99.90
16907;DHT22;8570;52.380;4.654;2023-09-19T14:44:46;18.40;99.90
16907;DHT22;8570;52.380;4.654;2023-09-19T14:49:49;18.30;99.90
16907;DHT22;8570;52.380;4.654;2023-09-19T14:54:51;18.20;99.90
16907;DHT22;8570;52.380;4.654;2023-09-19T14:59:55;18.10;99.90
16907;DHT22;8570;52.380;4.654;2023-09-19T15:04:57;18.00;99.90
16907;DHT22;8570;52.380;4.654;2023-09-19T15:09:59;17.90;99.90
16907;DHT22;8570;52.380;4.654;2023-09-19T15:15:02;17.90;99.90
16907;DHT22;8570;52.380;4.654;2023-09-19T15:20:07;17.90;99.90
16907;DHT22;8570;52.380;4.654;2023-09-19T15:25:09;17.80;99.90
16907;DHT22;8570;52.380;4.654;2023-09-19T15:30:13;17.80;99.90
16907;DHT22;8570;52.380;4.654;2023-09-19T15:35:15;17.70;99.90
16907;DHT22;8570;52.380;4.654;2023-09-19T15:40:18;17.60;99.90
16907;DHT22;8570;52.380;4.654;2023-09-19T15:45:23;17.40;99.90
16907;DHT22;8570;52.380;4.654;2023-09-19T15:50:25;17.40;99.90
16907;DHT22;8570;52.380;4.654;2023-09-19T15:55:27;17.40;99.90
16907;DHT22;8570;52.380;4.654;2023-09-19T16:00:31;17.30;99.90
16907;DHT22;8570;52.380;4.654;2023-09-19T16:05:37;17.20;99.90
16907;DHT22;8570;52.380;4.654;2023-09-19T16:10:40;17.20;99.90
16907;DHT22;8570;52.380;4.654;2023-09-19T16:15:43;17.10;99.90
16907;DHT22;8570;52.380;4.654;2023-09-19T16:20:46;17.10;99.90
16907;DHT22;8570;52.380;4.654;2023-09-19T16:25:47;17.10;99.90
16907;DHT22;8570;52.380;4.654;2023-09-19T16:30:51;17.10;99.90
16907;DHT22;8570;52.380;4.654;2023-09-19T16:35:53;17.00;99.90
16907;DHT22;8570;52.380;4.654;2023-09-19T16:40:57;17.00;99.90
16907;DHT22;8570;52.380;4.654;2023-09-19T16:46:01;17.00;99.90
16907;DHT22;8570;52.380;4.654;2023-09-19T16:51:06;17.00;99.90
16907;DHT22;8570;52.380;4.654;2023-09-19T16:56:10;17.00;99.90
16907;DHT22;8570;52.380;4.654;2023-09-19T17:01:15;16.90;99.90
16907;DHT22;8570;52.380;4.654;2023-09-19T17:06:19;16.90;99.90
16907;DHT22;8570;52.380;4.654;2023-09-19T17:11:24;16.90;99.90
16907;DHT22;8570;52.380;4.654;2023-09-19T17:16:27;16.80;99.90
16907;DHT22;8570;52.380;4.654;2023-09-19T17:21:30;16.80;99.90
16907;DHT22;8570;52.380;4.654;2023-09-19T17:26:32;16.80;99.90
16907;DHT22;8570;52.380;4.654;2023-09-19T17:31:35;16.80;99.90
16907;DHT22;8570;52.380;4.654;2023-09-19T17:36:40;16.70;99.90
16907;DHT22;8570;52.380;4.654;2023-09-19T17:41:43;16.70;99.90
16907;DHT22;8570;52.380;4.654;2023-09-19T17:46:46;17.00;99.90
16907;DHT22;8570;52.380;4.654;2023-09-19T17:51:49;17.00;99.90
16907;DHT22;8570;52.380;4.654;2023-09-19T17:56:51;16.80;99.90
16907;DHT22;8570;52.380;4.654;2023-09-19T18:01:54;16.70;99.90
16907;DHT22;8570;52.380;4.654;2023-09-19T18:06:56;16.70;99.90
16907;DHT22;8570;52.380;4.654;2023-09-19T18:11:58;16.60;99.90
16907;DHT22;8570;52.380;4.654;2023-09-19T18:17:01;16.60;99.90
16907;DHT22;8570;52.380;4.654;2023-09-19T18:22:03;16.50;99.90
16907;DHT22;8570;52.380;4.654;2023-09-19T18:27:05;16.50;99.90
16907;DHT22;8570;52.380;4.654;2023-09-19T18:32:09;16.50;99.90
16907;DHT22;8570;52.380;4.654;2023-09-19T18:37:11;16.50;99.90
16907;DHT22;8570;52.380;4.654;2023-09-19T18:42:13;16.50;99.90
16907;DHT22;8570;52.380;4.654;2023-09-19T18:47:16;16.40;99.90
16907;DHT22;8570;52.380;4.654;2023-09-19T18:52:18;16.40;99.90
16907;DHT22;8570;52.380;4.654;2023-09-19T18:57:20;16.40;99.90
16907;DHT22;8570;52.380;4.654;2023-09-19T19:02:23;16.40;99.90
16907;DHT22;8570;52.380;4.654;2023-09-19T19:07:25;16.40;99.90
16907;DHT22;8570;52.380;4.654;2023-09-19T19:12:29;16.40;99.90
16907;DHT22;8570;52.380;4.654;2023-09-19T19:17:34;16.40;99.90
16907;DHT22;8570;52.380;4.654;2023-09-19T19:22:37;16.40;99.90
16907;DHT22;8570;52.380;4.654;2023-09-19T19:27:41;16.40;99.90
16907;DHT22;8570;52.380;4.654;2023-09-19T19:32:44;16.40;99.90
16907;DHT22;8570;52.380;4.654;2023-09-19T19:37:46;16.40;99.90
16907;DHT22;8570;52.380;4.654;2023-09-19T19:42:49;16.40;99.90
16907;DHT22;8570;52.380;4.654;2023-09-19T19:47:52;16.40;99.90
16907;DHT22;8570;52.380;4.654;2023-09-19T19:52:54;16.40;99.90
16907;DHT22;8570;52.380;4.654;2023-09-19T19:57:57;16.40;99.90
16907;DHT22;8570;52.380;4.654;2023-09-19T20:03:01;16.40;99.90
16907;DHT22;8570;52.380;4.654;2023-09-19T20:08:04;16.50;99.90
16907;DHT22;8570;52.380;4.654;2023-09-19T20:13:06;16.50;99.90
16907;DHT22;8570;52.380;4.654;2023-09-19T20:18:11;16.50;99.90
16907;DHT22;8570;52.380;4.654;2023-09-19T20:23:13;16.50;99.90
16907;DHT22;8570;52.380;4.654;2023-09-19T20:28:15;16.50;99.90
16907;DHT22;8570;52.380;4.654;2023-09-19T20:33:19;16.60;99.90
16907;DHT22;8570;52.380;4.654;2023-09-19T20:38:26;16.60;99.90
16907;DHT22;8570;52.380;4.654;2023-09-19T20:43:30;16.60;99.90
16907;DHT22;8570;52.380;4.654;2023-09-19T20:48:34;16.70;99.90
16907;DHT22;8570;52.380;4.654;2023-09-19T20:53:37;16.70;99.90
16907;DHT22;8570;52.380;4.654;2023-09-19T20:58:39;16.70;99.90
16907;DHT22;8570;52.380;4.654;2023-09-19T21:03:43;16.70;99.90
16907;DHT22;8570;52.380;4.654;2023-09-19T21:08:45;16.70;99.90
16907;DHT22;8570;52.380;4.654;2023-09-19T21:13:48;16.80;99.90
16907;DHT22;8570;52.380;4.654;2023-09-19T21:18:52;16.80;99.90
16907;DHT22;8570;52.380;4.654;2023-09-19T21:23:54;16.80;99.90
16907;DHT22;8570;52.380;4.654;2023-09-19T21:28:56;16.80;99.90
16907;DHT22;8570;52.380;4.654;2023-09-19T21:33:59;16.80;99.90
16907;DHT22;8570;52.380;4.654;2023-09-19T21:39:03;16.90;99.90
16907;DHT22;8570;52.380;4.654;2023-09-19T21:44:05;16.90;99.90
16907;DHT22;8570;52.380;4.654;2023-09-19T21:49:09;17.00;99.90
16907;DHT22;8570;52.380;4.654;2023-09-19T21:54:11;17.00;99.90
16907;DHT22;8570;52.380;4.654;2023-09-19T21:59:12;17.00;99.90
16907;DHT22;8570;52.380;4.654;2023-09-19T22:04:16;17.00;99.90
16907;DHT22;8570;52.380;4.654;2023-09-19T22:09:18;17.00;99.90
16907;DHT22;8570;52.380;4.654;2023-09-19T22:14:20;17.00;99.90
16907;DHT22;8570;52.380;4.654;2023-09-19T22:19:30;17.00;99.90
16907;DHT22;8570;52.380;4.654;2023-09-19T22:24:32;17.00;99.90
16907;DHT22;8570;52.380;4.654;2023-09-19T22:29:36;17.00;99.90
16907;DHT22;8570;52.380;4.654;2023-09-19T22:34:44;17.00;99.90
16907;DHT22;8570;52.380;4.654;2023-09-19T22:39:48;17.00;99.90
16907;DHT22;8570;52.380;4.654;2023-09-19T22:44:51;17.10;99.90
16907;DHT22;8570;52.380;4.654;2023-09-19T22:49:56;17.10;99.90
16907;DHT22;8570;52.380;4.654;2023-09-19T22:54:59;17.10;99.90
16907;DHT22;8570;52.380;4.654;2023-09-19T23:00:03;17.10;99.90
16907;DHT22;8570;52.380;4.654;2023-09-19T23:05:08;17.10;99.90
16907;DHT22;8570;52.380;4.654;2023-09-19T23:10:16;17.10;99.90
16907;DHT22;8570;52.380;4.654;2023-09-19T23:15:19;17.10;99.90
16907;DHT22;8570;52.380;4.654;2023-09-19T23:20:28;17.10;99.90
16907;DHT22;8570;52.380;4.654;2023-09-19T23:25:37;17.10;99.90
16907;DHT22;8570;52.380;4.654;2023-09-19T23:30:47;17.10;99.90
16907;DHT22;8570;52.380;4.654;2023-09-19T23:35:55;17.10;99.90
16907;DHT22;8570;52.380;4.654;2023-09-19T23:40:57;17.10;99.90
16907;DHT22;8570;52.380;4.654;2023-09-19T23:45:58;17.20;99.90
16907;DHT22;8570;52.380;4.654;2023-09-19T23:51:06;17.20;99.90
16907;DHT22;8570;52.380;4.654;2023-09-19T23:56:10;17.20;99.90
